Time;durP1;ratioP1;P1;durP2;ratioP2;P2;SDS_P1;SDS_P2;PMS_P1;PMS_P2;Temp;Humidity;BMP_temperature;BMP_pressure;BME280_temperature;BME280_humidity;BME280_pressure;Samples;Min_cycle;Max_cycle;Signal;HPM_P1;HPM_P2
2021/12/08 00:02:22;;;;;;;24.90;9.93;;;;;;;;;;6245962;23;20182;-88
2021/12/08 00:05:28;;;;;;;26.17;9.60;;;;;;;;;;6245503;23;20165;-89
2021/12/08 00:08:35;;;;;;;22.13;9.43;;;;;;;;;;6243622;22;20202;-89
2021/12/08 00:15:04;;;;;;;22.97;9.83;;;;;;;;;;6265721;22;20281;-88
2021/12/08 00:18:10;;;;;;;16.50;8.10;;;;;;;;;;6247465;23;20209;-88
2021/12/08 00:21:19;;;;;;;19.67;8.80;;;;;;;;;;6247413;23;20166;-89
2021/12/08 00:24:26;;;;;;;26.50;10.97;;;;;;;;;;6246776;23;20166;-87
2021/12/08 00:27:33;;;;;;;21.17;10.17;;;;;;;;;;6253278;23;20223;-88
2021/12/08 00:30:41;;;;;;;22.70;9.37;;;;;;;;;;6235484;23;20176;-87
2021/12/08 00:33:48;;;;;;;20.00;8.77;;;;;;;;;;6253160;22;20147;-89
2021/12/08 00:37:00;;;;;;;21.63;8.83;;;;;;;;;;6270995;22;20166;-89
2021/12/08 00:40:22;;;;;;;21.90;9.23;;;;;;;;;;6270901;23;20170;-89
2021/12/08 00:43:32;;;;;;;16.80;7.87;;;;;;;;;;6271189;22;20171;-89
2021/12/08 00:46:37;;;;;;;22.63;8.67;;;;;;;;;;6252776;22;20253;-88
2021/12/08 00:49:45;;;;;;;17.87;8.13;;;;;;;;;;6252503;22;20182;-87
2021/12/08 00:52:51;;;;;;;18.90;8.03;;;;;;;;;;6253461;23;20202;-87
2021/12/08 00:56:04;;;;;;;16.67;8.30;;;;;;;;;;6252938;22;20219;-88
2021/12/08 01:16:46;;;;;;;13.43;6.50;;;;;;;;;;6213825;22;20195;-87
2021/12/08 01:19:52;;;;;;;19.33;7.33;;;;;;;;;;6246505;23;20159;-89
2021/12/08 01:22:57;;;;;;;17.83;6.73;;;;;;;;;;6242511;23;20161;-89
2021/12/08 01:26:03;;;;;;;15.67;6.20;;;;;;;;;;6246615;23;20166;-88
2021/12/08 01:29:08;;;;;;;21.67;7.53;;;;;;;;;;6246181;23;20190;-89
2021/12/08 01:32:15;;;;;;;12.27;5.67;;;;;;;;;;6263997;22;20210;-88
2021/12/08 01:35:21;;;;;;;15.07;5.63;;;;;;;;;;6244790;23;20169;-88
2021/12/08 01:38:26;;;;;;;14.83;6.73;;;;;;;;;;6249549;22;20199;-90
2021/12/08 01:41:32;;;;;;;17.00;6.27;;;;;;;;;;6249012;23;20235;-88
2021/12/08 01:48:05;;;;;;;18.50;6.80;;;;;;;;;;6268346;22;20207;-89
2021/12/08 01:51:12;;;;;;;13.73;5.60;;;;;;;;;;6250291;23;20237;-89
2021/12/08 01:54:18;;;;;;;10.53;5.43;;;;;;;;;;6268604;23;20542;-88
2021/12/08 01:57:23;;;;;;;15.93;6.00;;;;;;;;;;6251222;23;20190;-88
2021/12/08 02:00:30;;;;;;;12.50;5.90;;;;;;;;;;6249489;23;20170;-87
2021/12/08 02:03:41;;;;;;;12.10;5.33;;;;;;;;;;6269545;22;20159;-90
2021/12/08 02:06:47;;;;;;;20.83;6.37;;;;;;;;;;6249763;22;20297;-88
2021/12/08 02:09:52;;;;;;;10.70;5.27;;;;;;;;;;6252258;22;20174;-89
2021/12/08 02:12:58;;;;;;;16.40;6.50;;;;;;;;;;6250479;22;20208;-89
2021/12/08 02:54:13;;;;;;;13.33;6.53;;;;;;;;;;6221459;22;20223;-88
2021/12/08 02:57:26;;;;;;;17.47;6.80;;;;;;;;;;6251209;23;20171;-87
2021/12/08 03:00:32;;;;;;;21.03;7.60;;;;;;;;;;6250888;22;20165;-90
2021/12/08 03:03:39;;;;;;;20.47;7.47;;;;;;;;;;6251433;23;20146;-87
2021/12/08 03:06:45;;;;;;;16.77;6.77;;;;;;;;;;6251469;23;20171;-87
2021/12/08 03:09:52;;;;;;;13.30;6.37;;;;;;;;;;6250379;23;20186;-89
2021/12/08 03:12:58;;;;;;;16.63;6.20;;;;;;;;;;6250661;22;20166;-90
2021/12/08 03:16:03;;;;;;;18.77;7.17;;;;;;;;;;6250844;23;20167;-88
2021/12/08 03:19:09;;;;;;;16.23;6.17;;;;;;;;;;6250899;22;20191;-89
2021/12/08 03:22:14;;;;;;;13.53;5.80;;;;;;;;;;6249952;22;20170;-89
2021/12/08 03:25:28;;;;;;;12.47;5.73;;;;;;;;;;6249897;23;20182;-89
2021/12/08 03:28:40;;;;;;;16.13;6.10;;;;;;;;;;6250240;22;20217;-87
2021/12/08 03:31:47;;;;;;;16.60;5.63;;;;;;;;;;6249660;23;20171;-89
2021/12/08 03:34:52;;;;;;;18.40;6.77;;;;;;;;;;6249019;23;20165;-89
2021/12/08 03:37:58;;;;;;;21.47;7.03;;;;;;;;;;6248261;22;20190;-89
2021/12/08 03:41:06;;;;;;;17.87;7.27;;;;;;;;;;6265078;22;20540;-89
2021/12/08 03:44:11;;;;;;;19.77;7.43;;;;;;;;;;6247788;22;20194;-90
2021/12/08 03:47:25;;;;;;;18.23;6.70;;;;;;;;;;6265107;22;20263;-90
2021/12/08 03:50:31;;;;;;;14.50;6.23;;;;;;;;;;6248247;23;20158;-88
2021/12/08 03:53:37;;;;;;;18.73;6.93;;;;;;;;;;6248309;23;20189;-88
2021/12/08 03:56:44;;;;;;;14.60;6.90;;;;;;;;;;6249526;22;20162;-87
2021/12/08 03:59:49;;;;;;;15.93;6.57;;;;;;;;;;6248990;22;20215;-88
2021/12/08 04:02:55;;;;;;;20.60;7.30;;;;;;;;;;6248762;23;20186;-90
2021/12/08 04:06:03;;;;;;;20.33;6.87;;;;;;;;;;6249408;23;20154;-87
2021/12/08 04:09:17;;;;;;;19.83;6.50;;;;;;;;;;6249206;22;20305;-89
2021/12/08 04:12:24;;;;;;;18.03;7.53;;;;;;;;;;6247737;23;20368;-87
2021/12/08 04:15:29;;;;;;;18.53;6.57;;;;;;;;;;6247061;22;20166;-88
2021/12/08 04:18:37;;;;;;;16.83;7.30;;;;;;;;;;6264560;23;20171;-88
2021/12/08 04:21:44;;;;;;;21.50;6.90;;;;;;;;;;6246166;23;20154;-90
2021/12/08 04:24:50;;;;;;;19.90;7.23;;;;;;;;;;6244892;23;20169;-89
2021/12/08 04:27:58;;;;;;;17.83;7.00;;;;;;;;;;6243068;23;20524;-88
2021/12/08 04:31:07;;;;;;;24.37;7.33;;;;;;;;;;6243128;22;20198;-89
2021/12/08 04:34:16;;;;;;;20.57;7.60;;;;;;;;;;6245990;22;20155;-89
2021/12/08 04:37:27;;;;;;;19.57;6.90;;;;;;;;;;6248263;23;20215;-89
2021/12/08 04:40:43;;;;;;;15.43;6.80;;;;;;;;;;6251745;23;20217;-89
2021/12/08 04:43:57;;;;;;;16.43;7.50;;;;;;;;;;6250602;23;20170;-87
2021/12/08 04:47:23;;;;;;;19.33;6.87;;;;;;;;;;6251098;23;20194;-87
2021/12/08 13:18:02;;;;;;;24.53;10.27;;;;;;;;;;6161848;22;1393925;-89
2021/12/08 13:21:07;;;;;;;21.37;8.83;;;;;;;;;;6200841;23;20171;-88
2021/12/08 13:24:31;;;;;;;23.10;9.83;;;;;;;;;;6203016;23;20163;-88
2021/12/08 13:27:49;;;;;;;28.73;10.07;;;;;;;;;;6200973;23;20211;-90
2021/12/08 13:30:56;;;;;;;24.33;9.93;;;;;;;;;;6205858;23;20167;-90
2021/12/08 13:34:07;;;;;;;25.20;9.80;;;;;;;;;;6204513;23;20527;-89
2021/12/08 13:37:17;;;;;;;27.07;11.57;;;;;;;;;;6203337;23;20212;-88
2021/12/08 13:40:22;;;;;;;25.30;10.17;;;;;;;;;;6203245;23;20155;-90
2021/12/08 13:43:40;;;;;;;25.83;10.67;;;;;;;;;;6203444;23;20151;-88
2021/12/08 13:46:46;;;;;;;28.17;11.03;;;;;;;;;;6202933;23;20164;-89
2021/12/08 13:49:54;;;;;;;28.97;11.30;;;;;;;;;;6202115;23;20167;-87
2021/12/08 13:53:06;;;;;;;29.53;11.97;;;;;;;;;;6202427;23;20226;-88
2021/12/08 13:56:13;;;;;;;28.70;11.93;;;;;;;;;;6201896;23;20270;-87
2021/12/08 13:59:34;;;;;;;34.00;12.17;;;;;;;;;;6204004;23;20192;-89
2021/12/08 14:02:44;;;;;;;35.37;13.93;;;;;;;;;;6204453;23;20229;-89
2021/12/08 14:05:52;;;;;;;37.57;12.97;;;;;;;;;;6203117;23;20164;-90
2021/12/08 14:08:57;;;;;;;42.30;14.23;;;;;;;;;;6201786;23;20180;-90
2021/12/08 14:12:04;;;;;;;36.07;13.40;;;;;;;;;;6202774;23;20164;-88
2021/12/08 14:15:10;;;;;;;36.37;13.53;;;;;;;;;;6201770;23;20219;-89
2021/12/08 14:18:20;;;;;;;32.30;12.93;;;;;;;;;;6197367;23;20319;-87
2021/12/08 14:21:32;;;;;;;39.73;15.07;;;;;;;;;;6198841;23;20531;-89
2021/12/08 14:24:40;;;;;;;41.43;15.03;;;;;;;;;;6197780;23;20183;-87
2021/12/08 14:27:45;;;;;;;39.30;14.10;;;;;;;;;;6200858;23;20168;-89
2021/12/08 14:30:50;;;;;;;38.27;14.87;;;;;;;;;;6200593;23;20176;-87
2021/12/08 14:33:57;;;;;;;40.83;14.83;;;;;;;;;;6199913;23;20251;-87
2021/12/08 14:37:09;;;;;;;35.67;12.10;;;;;;;;;;6200081;23;20224;-88
2021/12/08 14:40:18;;;;;;;56.63;20.00;;;;;;;;;;6201616;23;20232;-89
2021/12/08 14:43:26;;;;;;;244.97;84.40;;;;;;;;;;6200408;23;20339;-88
2021/12/08 14:46:31;;;;;;;41.50;17.03;;;;;;;;;;6201171;23;20176;-89
2021/12/08 14:49:39;;;;;;;45.33;16.50;;;;;;;;;;6205007;23;20252;-89
2021/12/08 14:52:45;;;;;;;39.53;14.93;;;;;;;;;;6203472;23;20267;-89
2021/12/08 14:55:50;;;;;;;38.97;15.20;;;;;;;;;;6205161;23;20180;-88
2021/12/08 14:58:59;;;;;;;41.80;16.03;;;;;;;;;;6204978;23;20232;-87
2021/12/08 15:02:04;;;;;;;45.63;17.73;;;;;;;;;;6204031;23;20176;-88
2021/12/08 15:05:12;;;;;;;42.97;16.17;;;;;;;;;;6203573;23;20167;-90
2021/12/08 15:08:19;;;;;;;38.13;14.83;;;;;;;;;;6204183;23;20581;-88
2021/12/08 15:11:27;;;;;;;41.53;16.43;;;;;;;;;;6201652;23;20172;-87
2021/12/08 15:14:39;;;;;;;42.10;17.00;;;;;;;;;;6204456;23;20199;-86
2021/12/08 15:17:44;;;;;;;49.97;17.97;;;;;;;;;;6201834;23;20669;-89
2021/12/08 15:20:59;;;;;;;43.37;15.37;;;;;;;;;;6199470;23;20171;-90
2021/12/08 15:24:08;;;;;;;48.63;17.37;;;;;;;;;;6201992;23;20187;-88
2021/12/08 15:27:14;;;;;;;40.57;14.63;;;;;;;;;;6201647;23;20615;-88
2021/12/08 15:30:36;;;;;;;42.13;16.23;;;;;;;;;;6200314;23;20212;-87
2021/12/08 15:33:47;;;;;;;41.00;15.87;;;;;;;;;;6202821;23;20198;-87
2021/12/08 15:36:59;;;;;;;45.83;17.10;;;;;;;;;;6201398;23;20252;-86
2021/12/08 15:40:07;;;;;;;42.97;16.33;;;;;;;;;;6202054;23;20180;-88
2021/12/08 15:43:14;;;;;;;49.47;17.10;;;;;;;;;;6199975;23;20166;-89
2021/12/08 15:46:22;;;;;;;46.70;17.83;;;;;;;;;;6200003;23;20240;-90
2021/12/08 15:49:29;;;;;;;49.43;18.37;;;;;;;;;;6202766;23;20175;-89
2021/12/08 15:52:37;;;;;;;51.93;18.70;;;;;;;;;;6199642;23;20243;-86
2021/12/08 15:55:43;;;;;;;46.23;18.47;;;;;;;;;;6198688;23;20476;-89
2021/12/08 15:58:49;;;;;;;44.37;17.53;;;;;;;;;;6199878;23;20175;-88
2021/12/08 16:01:55;;;;;;;49.03;18.90;;;;;;;;;;6197910;23;20604;-89
2021/12/08 16:05:03;;;;;;;48.07;17.23;;;;;;;;;;6197827;23;20195;-87
2021/12/08 16:08:12;;;;;;;47.47;18.07;;;;;;;;;;6199490;23;20167;-87
2021/12/08 16:11:32;;;;;;;61.53;20.93;;;;;;;;;;6198174;23;20167;-87
2021/12/08 16:14:38;;;;;;;47.23;17.30;;;;;;;;;;6200910;23;20184;-88
2021/12/08 16:17:44;;;;;;;51.03;18.57;;;;;;;;;;6198346;23;20199;-89
2021/12/08 16:20:49;;;;;;;52.10;17.60;;;;;;;;;;6199230;23;20196;-89
2021/12/08 16:23:54;;;;;;;58.47;19.10;;;;;;;;;;6198216;23;20168;-88
2021/12/08 16:27:01;;;;;;;45.37;17.07;;;;;;;;;;6200438;23;20168;-87
2021/12/08 16:30:08;;;;;;;51.30;19.50;;;;;;;;;;6199670;23;20246;-88
2021/12/08 16:33:14;;;;;;;53.73;21.43;;;;;;;;;;6200212;23;20194;-89
2021/12/08 16:36:19;;;;;;;47.63;17.70;;;;;;;;;;6201644;23;20180;-88
2021/12/08 16:39:29;;;;;;;54.23;18.50;;;;;;;;;;6198278;23;20522;-89
2021/12/08 16:46:06;;;;;;;57.83;20.77;;;;;;;;;;6198086;23;20183;-89
2021/12/08 16:49:11;;;;;;;48.80;18.17;;;;;;;;;;6201814;23;20236;-87
2021/12/08 16:52:17;;;;;;;46.50;17.57;;;;;;;;;;6196515;23;20172;-88
2021/12/08 16:55:25;;;;;;;51.60;18.87;;;;;;;;;;6196986;23;20172;-89
2021/12/08 16:58:32;;;;;;;49.73;18.77;;;;;;;;;;6198359;23;20163;-88
2021/12/08 17:01:38;;;;;;;51.37;19.20;;;;;;;;;;6197952;23;20197;-88
2021/12/08 17:04:43;;;;;;;43.57;16.03;;;;;;;;;;6201295;23;20176;-88
2021/12/08 17:08:15;;;;;;;57.27;19.33;;;;;;;;;;6197810;23;20167;-87
2021/12/08 17:11:20;;;;;;;46.17;17.37;;;;;;;;;;6198506;23;20716;-90
2021/12/08 17:14:27;;;;;;;45.07;16.70;;;;;;;;;;6200988;23;20316;-87
2021/12/08 17:17:32;;;;;;;41.77;15.97;;;;;;;;;;6198652;23;20775;-89
2021/12/08 17:20:39;;;;;;;44.43;17.40;;;;;;;;;;6198621;23;20183;-89
2021/12/08 17:23:44;;;;;;;49.20;16.77;;;;;;;;;;6198903;23;20175;-89
2021/12/08 17:26:57;;;;;;;41.23;16.90;;;;;;;;;;6197899;23;20204;-88
2021/12/08 17:30:06;;;;;;;43.43;14.97;;;;;;;;;;6199273;23;20172;-89
2021/12/08 17:33:12;;;;;;;41.63;16.53;;;;;;;;;;6199654;23;20195;-89
2021/12/08 17:36:16;;;;;;;46.27;16.93;;;;;;;;;;6200739;23;20295;-90
2021/12/08 17:39:22;;;;;;;41.10;16.70;;;;;;;;;;6199299;23;20619;-90
2021/12/08 17:42:27;;;;;;;47.20;17.50;;;;;;;;;;6201970;23;20179;-88
2021/12/08 17:48:55;;;;;;;43.93;16.87;;;;;;;;;;6198132;23;20172;-88
2021/12/08 17:52:01;;;;;;;42.53;17.17;;;;;;;;;;6199040;23;20168;-88
2021/12/08 17:55:07;;;;;;;44.77;17.20;;;;;;;;;;6197829;23;20187;-88
2021/12/08 17:58:12;;;;;;;49.70;19.07;;;;;;;;;;6198872;23;20202;-89
2021/12/08 18:01:18;;;;;;;48.80;18.60;;;;;;;;;;6200733;23;20167;-91
2021/12/08 18:04:25;;;;;;;48.10;17.70;;;;;;;;;;6199115;23;20168;-89
2021/12/08 18:07:31;;;;;;;44.10;17.77;;;;;;;;;;6201330;23;20164;-89
2021/12/08 18:10:36;;;;;;;45.80;17.80;;;;;;;;;;6200357;23;20168;-89
2021/12/08 18:13:42;;;;;;;50.83;19.37;;;;;;;;;;6202128;23;20274;-90
2021/12/08 18:16:50;;;;;;;50.30;17.13;;;;;;;;;;6200426;23;20227;-89
2021/12/08 18:19:56;;;;;;;45.17;17.80;;;;;;;;;;6199653;23;20187;-90
2021/12/08 18:23:03;;;;;;;46.57;17.87;;;;;;;;;;6199251;23;20155;-90
2021/12/08 18:26:10;;;;;;;45.87;18.63;;;;;;;;;;6199421;23;20175;-90
2021/12/08 18:29:16;;;;;;;50.37;19.27;;;;;;;;;;6200375;23;20167;-89
2021/12/08 18:32:24;;;;;;;52.30;18.63;;;;;;;;;;6200235;23;20246;-89
2021/12/08 18:35:31;;;;;;;47.73;18.23;;;;;;;;;;6202651;23;20176;-89
2021/12/08 18:38:37;;;;;;;48.90;18.77;;;;;;;;;;6201299;23;20220;-89
2021/12/08 18:41:45;;;;;;;48.17;18.40;;;;;;;;;;6203530;23;20636;-90
2021/12/08 18:44:52;;;;;;;52.57;21.20;;;;;;;;;;6201966;23;20497;-89
2021/12/08 18:47:59;;;;;;;50.33;19.73;;;;;;;;;;6201668;23;20180;-89
2021/12/08 18:51:06;;;;;;;47.93;18.60;;;;;;;;;;6201392;23;20281;-91
2021/12/08 18:54:13;;;;;;;54.93;19.53;;;;;;;;;;6201973;23;20191;-90
2021/12/08 18:57:18;;;;;;;49.80;19.53;;;;;;;;;;6202987;23;20211;-89
2021/12/08 19:00:24;;;;;;;57.13;20.03;;;;;;;;;;6202271;23;20288;-89
2021/12/08 19:03:32;;;;;;;54.37;20.10;;;;;;;;;;6200768;23;20172;-89
2021/12/08 19:06:38;;;;;;;49.07;19.20;;;;;;;;;;6199033;23;20165;-90
2021/12/08 19:09:43;;;;;;;54.00;20.23;;;;;;;;;;6202441;23;20183;-88
2021/12/08 19:12:48;;;;;;;52.70;19.70;;;;;;;;;;6199749;23;20210;-88
2021/12/08 19:15:56;;;;;;;54.83;20.37;;;;;;;;;;6201643;23;20167;-90
2021/12/08 19:19:03;;;;;;;55.60;21.30;;;;;;;;;;6199960;23;20221;-90
2021/12/08 19:22:08;;;;;;;52.70;19.97;;;;;;;;;;6200452;23;20183;-88
2021/12/08 19:25:16;;;;;;;54.60;19.40;;;;;;;;;;6203161;23;20216;-89
2021/12/08 19:28:24;;;;;;;55.20;20.53;;;;;;;;;;6200175;23;20180;-89
2021/12/08 19:31:29;;;;;;;58.10;20.60;;;;;;;;;;6200552;23;20172;-91
2021/12/08 19:34:39;;;;;;;56.83;20.87;;;;;;;;;;6201137;23;20219;-90
2021/12/08 19:37:44;;;;;;;52.67;20.03;;;;;;;;;;6201591;23;20576;-88
2021/12/08 19:40:50;;;;;;;52.97;20.77;;;;;;;;;;6199506;23;20182;-89
2021/12/08 19:43:55;;;;;;;52.80;20.60;;;;;;;;;;6201740;23;20179;-89
2021/12/08 19:47:02;;;;;;;55.33;19.77;;;;;;;;;;6201414;23;20226;-90
2021/12/08 19:50:09;;;;;;;95.43;35.70;;;;;;;;;;6200091;23;20214;-88
2021/12/08 19:53:14;;;;;;;55.93;22.03;;;;;;;;;;6202844;23;20225;-91
2021/12/08 19:56:19;;;;;;;71.03;24.90;;;;;;;;;;6200253;23;20181;-89
2021/12/08 19:59:25;;;;;;;61.60;20.93;;;;;;;;;;6202019;23;20216;-88
2021/12/08 20:02:30;;;;;;;57.37;20.50;;;;;;;;;;6200887;23;20168;-88
2021/12/08 20:05:38;;;;;;;58.60;20.97;;;;;;;;;;6200109;23;20639;-88
2021/12/08 20:08:44;;;;;;;60.50;22.13;;;;;;;;;;6200775;23;20212;-90
2021/12/08 20:11:51;;;;;;;61.30;22.43;;;;;;;;;;6200899;23;20545;-90
2021/12/08 20:14:56;;;;;;;61.93;22.00;;;;;;;;;;6202059;23;20243;-88
2021/12/08 20:18:04;;;;;;;54.73;20.13;;;;;;;;;;6203040;23;20239;-90
2021/12/08 20:21:12;;;;;;;60.90;22.53;;;;;;;;;;6201627;23;20172;-89
2021/12/08 20:24:17;;;;;;;69.43;22.33;;;;;;;;;;6201927;23;20195;-88
2021/12/08 20:27:23;;;;;;;64.00;22.33;;;;;;;;;;6202084;23;20175;-88
2021/12/08 20:30:31;;;;;;;58.93;21.60;;;;;;;;;;6201670;23;20164;-90
2021/12/08 20:33:41;;;;;;;62.63;22.03;;;;;;;;;;6202002;23;20275;-87
2021/12/08 20:36:49;;;;;;;57.87;22.20;;;;;;;;;;6201079;23;20176;-90
2021/12/08 20:39:55;;;;;;;60.70;22.17;;;;;;;;;;6201383;23;20175;-88
2021/12/08 20:43:02;;;;;;;64.90;23.63;;;;;;;;;;6201723;23;20168;-88
2021/12/08 20:46:10;;;;;;;66.00;23.67;;;;;;;;;;6202186;23;20172;-88
2021/12/08 20:49:15;;;;;;;61.90;23.13;;;;;;;;;;6202594;23;20184;-90
2021/12/08 20:52:23;;;;;;;62.23;22.50;;;;;;;;;;6200754;23;20223;-89
2021/12/08 20:55:28;;;;;;;67.07;24.47;;;;;;;;;;6201025;23;20223;-88
2021/12/08 20:58:36;;;;;;;62.93;22.13;;;;;;;;;;6203030;23;20211;-90
2021/12/08 21:01:52;;;;;;;60.40;22.20;;;;;;;;;;6204966;23;20175;-89
2021/12/08 21:04:57;;;;;;;60.57;21.80;;;;;;;;;;6202529;23;20216;-89
2021/12/08 21:08:05;;;;;;;60.47;21.53;;;;;;;;;;6201908;23;20176;-88
2021/12/08 21:11:11;;;;;;;56.10;22.23;;;;;;;;;;6201344;23;20171;-89
2021/12/08 21:14:17;;;;;;;62.70;22.87;;;;;;;;;;6201034;23;20199;-90
2021/12/08 21:17:23;;;;;;;62.73;22.03;;;;;;;;;;6200007;23;20179;-88
2021/12/08 21:20:30;;;;;;;59.10;22.27;;;;;;;;;;6200754;23;20167;-89
2021/12/08 21:23:37;;;;;;;54.50;20.93;;;;;;;;;;6203061;23;20171;-88
2021/12/08 21:26:43;;;;;;;59.60;21.47;;;;;;;;;;6201634;23;20183;-89
2021/12/08 21:29:48;;;;;;;66.07;23.30;;;;;;;;;;6200697;23;20167;-88
2021/12/08 21:32:54;;;;;;;60.50;21.20;;;;;;;;;;6201448;23;20160;-89
2021/12/08 21:36:00;;;;;;;63.73;22.50;;;;;;;;;;6202721;23;20278;-89
2021/12/08 21:39:08;;;;;;;62.00;22.27;;;;;;;;;;6208772;23;20188;-89
2021/12/08 21:42:13;;;;;;;64.40;22.63;;;;;;;;;;6202482;23;20168;-89
2021/12/08 21:45:18;;;;;;;64.70;22.50;;;;;;;;;;6202091;23;20171;-91
2021/12/08 21:48:25;;;;;;;63.70;23.20;;;;;;;;;;6203788;23;20243;-92
2021/12/08 21:51:30;;;;;;;65.43;21.67;;;;;;;;;;6204027;23;20164;-92
2021/12/08 21:54:37;;;;;;;65.87;23.37;;;;;;;;;;6202997;23;20183;-89
2021/12/08 21:57:43;;;;;;;65.73;21.47;;;;;;;;;;6203234;23;20210;-90
2021/12/08 22:00:49;;;;;;;66.03;22.00;;;;;;;;;;6201975;23;20155;-90
2021/12/08 22:03:55;;;;;;;66.37;22.83;;;;;;;;;;6202569;23;20223;-92
2021/12/08 22:07:00;;;;;;;64.03;22.70;;;;;;;;;;6201176;23;20224;-90
2021/12/08 22:10:11;;;;;;;67.43;23.47;;;;;;;;;;6201328;23;20155;-88
2021/12/08 22:13:17;;;;;;;70.37;24.03;;;;;;;;;;6202448;23;20168;-91
2021/12/08 22:16:24;;;;;;;64.83;22.40;;;;;;;;;;6204374;23;20176;-88
2021/12/08 22:19:29;;;;;;;64.87;22.90;;;;;;;;;;6204150;23;20635;-88
2021/12/08 22:22:34;;;;;;;65.73;23.03;;;;;;;;;;6187726;23;20233;-91
2021/12/08 22:25:41;;;;;;;63.73;23.17;;;;;;;;;;6205338;23;20183;-90
2021/12/08 22:28:48;;;;;;;64.97;23.27;;;;;;;;;;6204762;23;20171;-87
2021/12/08 22:31:53;;;;;;;62.30;22.93;;;;;;;;;;6205087;23;20188;-92
2021/12/08 22:34:58;;;;;;;64.30;23.07;;;;;;;;;;6202263;23;20195;-88
2021/12/08 22:38:04;;;;;;;60.97;22.30;;;;;;;;;;6205587;23;20276;-89
2021/12/08 22:41:11;;;;;;;59.70;22.00;;;;;;;;;;6206204;23;20287;-89
2021/12/08 22:44:17;;;;;;;67.27;22.47;;;;;;;;;;6208059;23;20176;-89
2021/12/08 23:02:04;;;;;;;62.40;23.70;;;;;;;;;;6188196;23;20212;-88
2021/12/08 23:05:09;;;;;;;65.67;22.43;;;;;;;;;;6219649;23;20243;-90
2021/12/08 23:08:16;;;;;;;61.50;23.17;;;;;;;;;;6218946;23;20219;-89
2021/12/08 23:11:26;;;;;;;63.77;23.17;;;;;;;;;;6223733;23;20174;-88
2021/12/08 23:14:39;;;;;;;63.37;23.07;;;;;;;;;;6223285;23;20182;-88
